Time,TemperatureF,DewpointF,PressureIn,WindDirection,WindDirectionDegrees,WindSpeedMPH,WindSpeedGustMPH,Humidity,HourlyPrecipIn,Conditions,Clouds,dailyrainin,SoftwareType,DateUTC
2013-06-12 00:03:00,74.0,62.0,-100.00,West,260,6.0,10.0,68,0.00,,,-99.99,,2013-06-12 04:03:00,
2013-06-12 00:13:00,73.0,63.0,-100.00,West,280,6.0,9.0,69,0.00,,,-99.99,,2013-06-12 04:13:00,
2013-06-12 00:23:00,73.0,63.0,-100.00,West,260,4.0,9.0,70,0.00,,,-99.99,,2013-06-12 04:23:00,
2013-06-12 00:33:00,73.0,63.0,-100.00,West,260,4.0,6.0,71,0.00,,,-99.99,,2013-06-12 04:33:00,
2013-06-12 00:42:00,72.0,63.0,-100.00,West,265,4.0,6.0,72,0.00,,,-99.99,,2013-06-12 04:42:00,
2013-06-12 00:52:00,72.0,63.0,-100.00,West,265,2.0,6.0,73,0.00,,,-99.99,,2013-06-12 04:52:00,
2013-06-12 01:03:00,71.0,63.0,-100.00,West,270,2.0,6.0,74,0.00,,,-99.99,,2013-06-12 05:03:00,
2013-06-12 01:12:00,71.0,63.0,-100.00,WNW,285,2.0,3.0,74,0.00,,,-99.99,,2013-06-12 05:12:00,
2013-06-12 01:22:00,71.0,63.0,-100.00,WSW,250,1.0,4.0,75,0.00,,,-99.99,,2013-06-12 05:22:00,
2013-06-12 01:32:00,71.0,63.0,-100.00,West,280,0.0,2.0,77,0.00,,,-99.99,,2013-06-12 05:32:00,
2013-06-12 01:42:00,70.0,63.0,-100.00,South,180,1.0,1.0,78,0.00,,,-99.99,,2013-06-12 05:42:00,
2013-06-12 01:52:00,70.0,63.0,-100.00,SE,130,1.0,2.0,79,0.00,,,-99.99,,2013-06-12 05:52:00,
2013-06-12 02:02:00,69.0,63.0,-100.00,SSE,165,1.0,4.0,81,0.00,,,-99.99,,2013-06-12 06:02:00,
2013-06-12 02:12:00,68.0,63.0,-100.00,SSE,165,0.0,2.0,82,0.00,,,-99.99,,2013-06-12 06:12:00,
2013-06-12 02:22:00,67.0,63.0,-100.00,SSW,195,2.0,3.0,87,0.00,,,-99.99,,2013-06-12 06:22:00,
2013-06-12 02:32:00,67.0,63.0,-100.00,SSW,210,2.0,4.0,87,0.00,,,-99.99,,2013-06-12 06:32:00,
2013-06-12 02:42:00,67.0,63.0,-100.00,South,185,3.0,4.0,87,0.00,,,-99.99,,2013-06-12 06:42:00,
2013-06-12 02:52:00,66.0,63.0,-100.00,SSW,205,3.0,5.0,88,0.00,,,-99.99,,2013-06-12 06:52:00,
2013-06-12 03:02:00,66.0,63.0,-100.00,SSW,205,3.0,5.0,88,0.00,,,-99.99,,2013-06-12 07:02:00,
2013-06-12 03:12:00,67.0,62.0,-100.00,SSW,205,2.0,4.0,85,0.00,,,-99.99,,2013-06-12 07:12:00,
2013-06-12 03:22:00,67.0,63.0,-100.00,South,180,2.0,3.0,86,0.00,,,-99.99,,2013-06-12 07:22:00,
2013-06-12 03:33:00,67.0,62.0,-100.00,South,190,2.0,4.0,86,0.00,,,-99.99,,2013-06-12 07:33:00,
2013-06-12 03:43:00,67.0,62.0,-100.00,South,170,2.0,3.0,86,0.00,,,-99.99,,2013-06-12 07:43:00,
2013-06-12 03:53:00,67.0,62.0,-100.00,South,170,2.0,3.0,86,0.00,,,-99.99,,2013-06-12 07:53:00,
2013-06-12 04:02:00,67.0,62.0,-100.00,SSW,200,1.0,2.0,85,0.00,,,-99.99,,2013-06-12 08:02:00,
2013-06-12 04:12:00,67.0,62.0,-100.00,SSW,200,1.0,2.0,85,0.00,,,-99.99,,2013-06-12 08:12:00,
2013-06-12 04:22:00,66.0,62.0,-100.00,South,180,1.0,2.0,86,0.00,,,-99.99,,2013-06-12 08:22:00,
2013-06-12 04:33:00,66.0,62.0,-100.00,South,175,1.0,3.0,86,0.00,,,-99.99,,2013-06-12 08:33:00,
2013-06-12 04:43:00,67.0,62.0,-100.00,South,180,1.0,2.0,85,0.00,,,-99.99,,2013-06-12 08:43:00,
2013-06-12 04:53:00,67.0,62.0,-100.00,SSE,165,2.0,3.0,85,0.00,,,-99.99,,2013-06-12 08:53:00,
2013-06-12 05:01:00,66.0,62.0,-100.00,SSW,200,1.0,3.0,86,0.00,,,-99.99,,2013-06-12 09:01:00,
2013-06-12 05:11:00,66.0,62.0,-100.00,South,185,2.0,2.0,87,0.00,,,-99.99,,2013-06-12 09:11:00,
2013-06-12 05:22:00,65.0,62.0,-100.00,SSW,205,2.0,3.0,88,0.00,,,-99.99,,2013-06-12 09:22:00,
2013-06-12 05:33:00,65.0,62.0,-100.00,SSW,210,2.0,4.0,90,0.00,,,-99.99,,2013-06-12 09:33:00,
2013-06-12 05:43:00,66.0,63.0,-100.00,SSW,200,1.0,4.0,88,0.00,,,-99.99,,2013-06-12 09:43:00,
2013-06-12 05:53:00,66.0,63.0,-100.00,SSW,200,1.0,4.0,88,0.00,,,-99.99,,2013-06-12 09:53:00,
2013-06-12 06:02:00,66.0,62.0,-100.00,SW,225,1.0,3.0,89,0.00,,,-99.99,,2013-06-12 10:02:00,
2013-06-12 06:12:00,66.0,62.0,-100.00,SW,220,3.0,6.0,87,0.00,,,-99.99,,2013-06-12 10:12:00,
2013-06-12 06:23:00,66.0,62.0,-100.00,SW,220,3.0,6.0,87,0.00,,,-99.99,,2013-06-12 10:23:00,
2013-06-12 06:33:00,67.0,63.0,-100.00,WNW,285,2.0,5.0,86,0.00,,,-99.99,,2013-06-12 10:33:00,
2013-06-12 06:43:00,67.0,63.0,-100.00,WSW,255,1.0,4.0,85,0.00,,,-99.99,,2013-06-12 10:43:00,
2013-06-12 06:53:00,68.0,63.0,-100.00,West,265,1.0,4.0,84,0.00,,,-99.99,,2013-06-12 10:53:00,
2013-06-12 07:02:00,67.0,63.0,-100.00,South,175,1.0,5.0,84,0.00,,,-99.99,,2013-06-12 11:02:00,
2013-06-12 07:12:00,67.0,63.0,-100.00,West,265,1.0,2.0,84,0.00,,,-99.99,,2013-06-12 11:12:00,
2013-06-12 07:24:00,67.0,63.0,-100.00,South,170,1.0,2.0,84,0.00,,,-99.99,,2013-06-12 11:24:00,
2013-06-12 07:33:00,67.0,63.0,-100.00,SW,220,1.0,4.0,86,0.00,,,-99.99,,2013-06-12 11:33:00,
2013-06-12 07:43:00,68.0,63.0,-100.00,West,270,1.0,3.0,84,0.00,,,-99.99,,2013-06-12 11:43:00,
2013-06-12 07:53:00,67.0,63.0,-100.00,SSE,165,1.0,4.0,86,0.00,,,-99.99,,2013-06-12 11:53:00,
2013-06-12 08:02:00,67.0,64.0,-100.00,ESE,110,1.0,3.0,88,0.00,,,-99.99,,2013-06-12 12:02:00,
2013-06-12 08:11:00,68.0,64.0,-100.00,SW,230,0.0,3.0,87,0.00,,,-99.99,,2013-06-12 12:11:00,
2013-06-12 08:23:00,68.0,64.0,-100.00,South,180,1.0,2.0,85,0.00,,,-99.99,,2013-06-12 12:23:00,
2013-06-12 08:33:00,69.0,64.0,-100.00,NW,305,1.0,3.0,84,0.00,,,-99.99,,2013-06-12 12:33:00,
2013-06-12 08:42:00,71.0,65.0,-100.00,ESE,115,6.0,8.0,82,0.00,,,-99.99,,2013-06-12 12:42:00,
2013-06-12 08:53:00,71.0,65.0,-100.00,ESE,115,6.0,8.0,82,0.00,,,-99.99,,2013-06-12 12:53:00,
2013-06-12 09:01:00,70.0,65.0,-100.00,NNE,20,1.0,7.0,83,0.00,,,-99.99,,2013-06-12 13:01:00,
2013-06-12 09:12:00,71.0,65.0,-100.00,ESE,105,3.0,6.0,82,0.00,,,-99.99,,2013-06-12 13:12:00,
2013-06-12 09:22:00,72.0,65.0,-100.00,South,185,1.0,4.0,80,0.00,,,-99.99,,2013-06-12 13:22:00,
2013-06-12 09:33:00,72.0,65.0,-100.00,West,280,1.0,3.0,80,0.00,,,-99.99,,2013-06-12 13:33:00,
2013-06-12 09:43:00,72.0,65.0,-100.00,East,95,2.0,5.0,79,0.00,,,-99.99,,2013-06-12 13:43:00,
2013-06-12 09:53:00,72.0,66.0,-100.00,ESE,110,3.0,5.0,81,0.00,,,-99.99,,2013-06-12 13:53:00,
2013-06-12 10:02:00,72.0,66.0,-100.00,ESE,105,3.0,6.0,80,0.00,,,-99.99,,2013-06-12 14:02:00,
2013-06-12 10:11:00,73.0,66.0,-100.00,NW,305,1.0,7.0,80,0.00,,,-99.99,,2013-06-12 14:11:00,
2013-06-12 10:24:00,75.0,67.0,-100.00,West,275,1.0,5.0,75,0.00,,,-99.99,,2013-06-12 14:24:00,
2013-06-12 10:33:00,75.0,67.0,-100.00,West,275,1.0,5.0,75,0.00,,,-99.99,,2013-06-12 14:33:00,
2013-06-12 10:43:00,75.0,66.0,-100.00,East,85,3.0,6.0,74,0.00,,,-99.99,,2013-06-12 14:43:00,
2013-06-12 10:53:00,75.0,66.0,-100.00,North,0,3.0,5.0,75,0.00,,,-99.99,,2013-06-12 14:53:00,
2013-06-12 11:01:00,77.0,66.0,-100.00,NE,55,3.0,8.0,70,0.00,,,-99.99,,2013-06-12 15:01:00,
2013-06-12 11:12:00,76.0,67.0,-100.00,WNW,295,1.0,6.0,72,0.00,,,-99.99,,2013-06-12 15:12:00,
2013-06-12 11:23:00,76.0,66.0,-100.00,WNW,285,1.0,5.0,71,0.00,,,-99.99,,2013-06-12 15:23:00,
2013-06-12 11:33:00,75.0,65.0,-100.00,ESE,110,3.0,9.0,71,0.00,,,-99.99,,2013-06-12 15:33:00,
2013-06-12 11:43:00,76.0,66.0,-100.00,East,80,4.0,8.0,71,0.00,,,-99.99,,2013-06-12 15:43:00,
2013-06-12 11:52:00,76.0,66.0,-100.00,East,80,4.0,8.0,71,0.00,,,-99.99,,2013-06-12 15:52:00,
2013-06-12 12:02:00,76.0,66.0,-100.00,SE,125,3.0,7.0,70,0.00,,,-99.99,,2013-06-12 16:02:00,
2013-06-12 12:12:00,77.0,66.0,-100.00,ESE,115,3.0,7.0,70,0.00,,,-99.99,,2013-06-12 16:12:00,
2013-06-12 12:22:00,77.0,67.0,-100.00,SW,230,1.0,4.0,69,0.00,,,-99.99,,2013-06-12 16:22:00,
2013-06-12 12:33:00,78.0,67.0,-100.00,SSW,200,1.0,6.0,69,0.00,,,-99.99,,2013-06-12 16:33:00,
2013-06-12 12:43:00,78.0,67.0,-100.00,SSW,210,6.0,8.0,69,0.00,,,-99.99,,2013-06-12 16:43:00,
2013-06-12 12:52:00,78.0,67.0,-100.00,SSW,210,6.0,8.0,69,0.00,,,-99.99,,2013-06-12 16:52:00,
2013-06-12 13:01:00,79.0,68.0,-100.00,South,190,4.0,6.0,70,0.00,,,-99.99,,2013-06-12 17:01:00,
2013-06-12 13:12:00,80.0,68.0,-100.00,SW,225,1.0,5.0,65,0.00,,,-99.99,,2013-06-12 17:12:00,
2013-06-12 13:23:00,79.0,69.0,-100.00,SSE,150,2.0,7.0,69,0.00,,,-99.99,,2013-06-12 17:23:00,
2013-06-12 13:33:00,80.0,69.0,-100.00,East,95,6.0,9.0,68,0.00,,,-99.99,,2013-06-12 17:33:00,
2013-06-12 13:42:00,81.0,69.0,-100.00,ESE,110,4.0,9.0,67,0.00,,,-99.99,,2013-06-12 17:42:00,
2013-06-12 13:52:00,81.0,69.0,-100.00,SSE,165,4.0,7.0,67,0.00,,,-99.99,,2013-06-12 17:52:00,
2013-06-12 14:02:00,82.0,69.0,-100.00,SW,225,4.0,8.0,65,0.00,,,-99.99,,2013-06-12 18:02:00,
2013-06-12 14:12:00,82.0,70.0,-100.00,South,180,4.0,11.0,69,0.00,,,-99.99,,2013-06-12 18:12:00,
2013-06-12 14:22:00,81.0,70.0,-100.00,South,170,10.0,12.0,68,0.00,,,-99.99,,2013-06-12 18:22:00,
2013-06-12 14:33:00,81.0,69.0,-100.00,South,180,8.0,13.0,68,0.00,,,-99.99,,2013-06-12 18:33:00,
2013-06-12 14:43:00,82.0,71.0,-100.00,SSE,160,9.0,12.0,69,0.00,,,-99.99,,2013-06-12 18:43:00,
2013-06-12 14:53:00,82.0,71.0,-100.00,SSE,160,9.0,12.0,69,0.00,,,-99.99,,2013-06-12 18:53:00,
2013-06-12 15:01:00,82.0,71.0,-100.00,SSE,165,9.0,16.0,69,0.00,,,-99.99,,2013-06-12 19:01:00,
2013-06-12 15:11:00,83.0,70.0,-100.00,South,185,12.0,16.0,66,0.00,,,-99.99,,2013-06-12 19:11:00,
2013-06-12 15:22:00,83.0,71.0,-100.00,SSW,200,9.0,15.0,66,0.00,,,-99.99,,2013-06-12 19:22:00,
2013-06-12 15:32:00,83.0,71.0,-100.00,SSW,210,6.0,15.0,67,0.00,,,-99.99,,2013-06-12 19:32:00,
2013-06-12 15:42:00,83.0,71.0,-100.00,SSW,200,7.0,12.0,66,0.00,,,-99.99,,2013-06-12 19:42:00,
2013-06-12 15:52:00,83.0,71.0,-100.00,SSE,155,11.0,17.0,67,0.00,,,-99.99,,2013-06-12 19:52:00,
2013-06-12 16:01:00,84.0,72.0,-100.00,SW,225,9.0,21.0,66,0.00,,,-99.99,,2013-06-12 20:01:00,
2013-06-12 16:11:00,85.0,70.0,-100.00,West,270,3.0,12.0,61,0.00,,,-99.99,,2013-06-12 20:11:00,
2013-06-12 16:22:00,87.0,71.0,-100.00,SE,145,4.0,6.0,58,0.00,,,-99.99,,2013-06-12 20:22:00,
2013-06-12 16:32:00,85.0,70.0,-100.00,SSE,150,4.0,9.0,60,0.00,,,-99.99,,2013-06-12 20:32:00,
2013-06-12 16:43:00,85.0,71.0,-100.00,SSW,200,5.0,7.0,63,0.00,,,-99.99,,2013-06-12 20:43:00,
2013-06-12 16:54:00,85.0,71.0,-100.00,SSW,200,5.0,7.0,63,0.00,,,-99.99,,2013-06-12 20:54:00,
2013-06-12 17:01:00,85.0,71.0,-100.00,SE,140,5.0,7.0,64,0.00,,,-99.99,,2013-06-12 21:01:00,
2013-06-12 17:12:00,85.0,72.0,-100.00,ESE,110,4.0,12.0,64,0.00,,,-99.99,,2013-06-12 21:12:00,
2013-06-12 17:22:00,86.0,71.0,-100.00,SE,135,5.0,9.0,62,0.00,,,-99.99,,2013-06-12 21:22:00,
2013-06-12 17:33:00,85.0,72.0,-100.00,South,190,3.0,7.0,65,0.00,,,-99.99,,2013-06-12 21:33:00,
2013-06-12 17:43:00,84.0,72.0,-100.00,SSE,165,7.0,12.0,66,0.00,,,-99.99,,2013-06-12 21:43:00,
2013-06-12 17:53:00,84.0,72.0,-100.00,SSE,165,7.0,12.0,66,0.00,,,-99.99,,2013-06-12 21:53:00,
2013-06-12 18:01:00,85.0,73.0,-100.00,SW,215,9.0,12.0,67,0.00,,,-99.99,,2013-06-12 22:01:00,
2013-06-12 18:11:00,86.0,73.0,-100.00,SSW,195,9.0,15.0,64,0.00,,,-99.99,,2013-06-12 22:11:00,
2013-06-12 18:22:00,85.0,72.0,-100.00,South,190,7.0,14.0,64,0.00,,,-99.99,,2013-06-12 22:22:00,
2013-06-12 18:32:00,85.0,72.0,-100.00,SSW,200,7.0,15.0,65,0.00,,,-99.99,,2013-06-12 22:32:00,
2013-06-12 18:43:00,85.0,72.0,-100.00,SW,220,7.0,10.0,66,0.00,,,-99.99,,2013-06-12 22:43:00,
2013-06-12 18:52:00,87.0,73.0,-100.00,SSW,205,9.0,12.0,64,0.00,,,-99.99,,2013-06-12 22:52:00,
2013-06-12 19:02:00,86.0,72.0,-100.00,SW,230,9.0,14.0,61,0.00,,,-99.99,,2013-06-12 23:02:00,
2013-06-12 19:12:00,86.0,72.0,-100.00,SW,230,9.0,14.0,61,0.00,,,-99.99,,2013-06-12 23:12:00,
2013-06-12 19:22:00,86.0,72.0,-100.00,SSW,200,7.0,13.0,62,0.00,,,-99.99,,2013-06-12 23:22:00,
2013-06-12 19:32:00,85.0,72.0,-100.00,South,190,6.0,14.0,65,0.00,,,-99.99,,2013-06-12 23:32:00,
2013-06-12 19:42:00,85.0,72.0,-100.00,South,180,6.0,9.0,65,0.00,,,-99.99,,2013-06-12 23:42:00,
2013-06-12 19:52:00,85.0,73.0,-100.00,South,180,4.0,7.0,66,0.00,,,-99.99,,2013-06-12 23:52:00,
2013-06-12 20:01:00,85.0,73.0,-100.00,SSE,155,2.0,5.0,67,0.00,,,-99.99,,2013-06-13 00:01:00,
2013-06-12 20:12:00,85.0,72.0,-100.00,ESE,115,1.0,4.0,65,0.00,,,-99.99,,2013-06-13 00:12:00,
2013-06-12 20:22:00,84.0,73.0,-100.00,ESE,115,1.0,6.0,69,0.00,,,-99.99,,2013-06-13 00:22:00,
2013-06-12 20:32:00,84.0,73.0,-100.00,SW,235,4.0,6.0,69,0.00,,,-99.99,,2013-06-13 00:32:00,
2013-06-12 20:42:00,84.0,73.0,-100.00,South,185,2.0,12.0,70,0.00,,,-99.99,,2013-06-13 00:42:00,
2013-06-12 20:52:00,80.0,69.0,-100.00,South,190,12.0,18.0,70,0.00,,,-99.99,,2013-06-13 00:52:00,
2013-06-12 21:01:00,79.0,69.0,-100.00,SSW,200,4.0,16.0,72,0.00,,,-99.99,,2013-06-13 01:01:00,
2013-06-12 21:12:00,78.0,69.0,-100.00,South,180,2.0,7.0,73,0.00,,,-99.99,,2013-06-13 01:12:00,
2013-06-12 21:22:00,78.0,69.0,-100.00,South,180,2.0,7.0,73,0.00,,,-99.99,,2013-06-13 01:22:00,
2013-06-12 21:32:00,78.0,70.0,-100.00,East,100,4.0,7.0,76,0.00,,,-99.99,,2013-06-13 01:32:00,
2013-06-12 21:43:00,76.0,68.0,-100.00,SSE,155,5.0,11.0,76,0.00,,,-99.99,,2013-06-13 01:43:00,
2013-06-12 21:53:00,76.0,68.0,-100.00,SSE,155,5.0,11.0,76,0.00,,,-99.99,,2013-06-13 01:53:00,
2013-06-12 22:02:00,75.0,69.0,-100.00,ESE,120,3.0,14.0,82,1.69,,,-99.99,,2013-06-13 02:02:00,
2013-06-12 22:12:00,74.0,69.0,-100.00,East,80,9.0,10.0,86,0.55,,,-99.99,,2013-06-13 02:12:00,
2013-06-12 22:22:00,74.0,69.0,-100.00,ESE,110,5.0,11.0,85,0.00,,,-99.99,,2013-06-13 02:22:00,
2013-06-12 22:33:00,73.0,69.0,-100.00,SE,125,4.0,8.0,87,0.00,,,-99.99,,2013-06-13 02:33:00,
2013-06-12 22:43:00,73.0,69.0,-100.00,SE,135,5.0,7.0,88,0.00,,,-99.99,,2013-06-13 02:43:00,
2013-06-12 22:52:00,73.0,69.0,-100.00,ESE,120,4.0,7.0,87,0.00,,,-99.99,,2013-06-13 02:52:00,
2013-06-12 23:02:00,73.0,69.0,-100.00,SE,135,4.0,7.0,87,0.00,,,-99.99,,2013-06-13 03:02:00,
2013-06-12 23:12:00,73.0,70.0,-100.00,SE,140,5.0,10.0,90,1.10,,,-99.99,,2013-06-13 03:12:00,
2013-06-12 23:22:00,74.0,71.0,-100.00,SE,140,7.0,10.0,89,0.00,,,-99.99,,2013-06-13 03:22:00,
2013-06-12 23:33:00,74.0,71.0,-100.00,SE,125,9.0,12.0,90,0.00,,,-99.99,,2013-06-13 03:33:00,
2013-06-12 23:43:00,74.0,71.0,-100.00,SE,125,6.0,11.0,89,0.00,,,-99.99,,2013-06-13 03:43:00,
2013-06-12 23:52:00,74.0,71.0,-100.00,SE,125,6.0,11.0,89,0.00,,,-99.99,,2013-06-13 03:52:00,